sensor_id;sensor_type;location;lat;lon;timestamp;P1;durP1;ratioP1;P2;durP2;ratioP2
7729;SDS011;3908;52.310;7.230;2023-02-11T00:00:21;73.43;;;30.93;;
7729;SDS011;3908;52.310;7.230;2023-02-11T00:03:08;74.23;;;30.37;;
7729;SDS011;3908;52.310;7.230;2023-02-11T00:05:58;66.30;;;28.67;;
7729;SDS011;3908;52.310;7.230;2023-02-11T00:08:46;62.17;;;28.90;;
7729;SDS011;3908;52.310;7.230;2023-02-11T00:11:33;67.30;;;28.37;;
7729;SDS011;3908;52.310;7.230;2023-02-11T00:14:22;74.90;;;30.23;;
7729;SDS011;3908;52.310;7.230;2023-02-11T00:17:09;63.93;;;28.73;;
7729;SDS011;3908;52.310;7.230;2023-02-11T00:19:59;64.70;;;28.37;;
7729;SDS011;3908;52.310;7.230;2023-02-11T00:22:50;64.23;;;29.63;;
7729;SDS011;3908;52.310;7.230;2023-02-11T00:25:38;68.70;;;30.97;;
7729;SDS011;3908;52.310;7.230;2023-02-11T00:28:26;77.33;;;34.73;;
7729;SDS011;3908;52.310;7.230;2023-02-11T00:31:14;68.40;;;31.80;;
7729;SDS011;3908;52.310;7.230;2023-02-11T00:34:03;68.63;;;29.67;;
7729;SDS011;3908;52.310;7.230;2023-02-11T00:36:50;70.83;;;29.17;;
7729;SDS011;3908;52.310;7.230;2023-02-11T00:39:40;61.20;;;29.10;;
7729;SDS011;3908;52.310;7.230;2023-02-11T00:42:27;64.27;;;28.60;;
7729;SDS011;3908;52.310;7.230;2023-02-11T00:45:15;63.80;;;28.27;;
7729;SDS011;3908;52.310;7.230;2023-02-11T00:48:02;60.77;;;28.07;;
7729;SDS011;3908;52.310;7.230;2023-02-11T00:50:49;60.03;;;26.47;;
7729;SDS011;3908;52.310;7.230;2023-02-11T00:53:39;60.37;;;26.87;;
7729;SDS011;3908;52.310;7.230;2023-02-11T00:56:28;56.77;;;26.30;;
7729;SDS011;3908;52.310;7.230;2023-02-11T00:59:16;57.17;;;27.70;;
7729;SDS011;3908;52.310;7.230;2023-02-11T01:02:03;73.37;;;27.07;;
7729;SDS011;3908;52.310;7.230;2023-02-11T01:04:50;63.43;;;26.93;;
7729;SDS011;3908;52.310;7.230;2023-02-11T01:07:38;57.73;;;25.60;;
7729;SDS011;3908;52.310;7.230;2023-02-11T01:10:25;55.30;;;24.00;;
7729;SDS011;3908;52.310;7.230;2023-02-11T01:13:14;57.57;;;25.27;;
7729;SDS011;3908;52.310;7.230;2023-02-11T01:16:02;55.27;;;24.03;;
7729;SDS011;3908;52.310;7.230;2023-02-11T01:18:51;49.13;;;22.60;;
7729;SDS011;3908;52.310;7.230;2023-02-11T01:21:39;43.97;;;22.00;;
7729;SDS011;3908;52.310;7.230;2023-02-11T01:24:27;51.13;;;24.67;;
7729;SDS011;3908;52.310;7.230;2023-02-11T01:27:14;55.90;;;23.70;;
7729;SDS011;3908;52.310;7.230;2023-02-11T01:30:06;54.23;;;24.23;;
7729;SDS011;3908;52.310;7.230;2023-02-11T01:32:55;49.17;;;22.57;;
7729;SDS011;3908;52.310;7.230;2023-02-11T01:35:42;51.27;;;23.43;;
7729;SDS011;3908;52.310;7.230;2023-02-11T01:38:30;44.40;;;21.93;;
7729;SDS011;3908;52.310;7.230;2023-02-11T01:41:18;54.93;;;23.60;;
7729;SDS011;3908;52.310;7.230;2023-02-11T01:44:25;54.40;;;23.33;;
7729;SDS011;3908;52.310;7.230;2023-02-11T01:47:16;49.83;;;21.73;;
7729;SDS011;3908;52.310;7.230;2023-02-11T01:50:03;50.73;;;22.07;;
7729;SDS011;3908;52.310;7.230;2023-02-11T01:52:53;38.87;;;20.10;;
7729;SDS011;3908;52.310;7.230;2023-02-11T01:56:01;45.07;;;20.20;;
7729;SDS011;3908;52.310;7.230;2023-02-11T01:59:09;52.87;;;24.10;;
7729;SDS011;3908;52.310;7.230;2023-02-11T02:02:01;44.07;;;20.47;;
7729;SDS011;3908;52.310;7.230;2023-02-11T02:04:58;46.20;;;20.63;;
7729;SDS011;3908;52.310;7.230;2023-02-11T02:07:55;42.37;;;19.87;;
7729;SDS011;3908;52.310;7.230;2023-02-11T02:10:49;41.73;;;19.70;;
7729;SDS011;3908;52.310;7.230;2023-02-11T02:13:40;37.47;;;19.67;;
7729;SDS011;3908;52.310;7.230;2023-02-11T02:16:29;37.80;;;19.23;;
7729;SDS011;3908;52.310;7.230;2023-02-11T02:19:47;43.23;;;19.47;;
7729;SDS011;3908;52.310;7.230;2023-02-11T02:23:25;38.37;;;19.10;;
7729;SDS011;3908;52.310;7.230;2023-02-11T02:29:41;36.87;;;17.40;;
7729;SDS011;3908;52.310;7.230;2023-02-11T02:33:05;30.40;;;16.37;;
7729;SDS011;3908;52.310;7.230;2023-02-11T02:36:11;42.17;;;17.43;;
7729;SDS011;3908;52.310;7.230;2023-02-11T02:39:05;35.10;;;17.77;;
7729;SDS011;3908;52.310;7.230;2023-02-11T02:41:56;38.17;;;17.83;;
7729;SDS011;3908;52.310;7.230;2023-02-11T02:44:46;36.50;;;19.97;;
7729;SDS011;3908;52.310;7.230;2023-02-11T02:47:34;37.60;;;19.37;;
7729;SDS011;3908;52.310;7.230;2023-02-11T02:50:25;44.60;;;17.13;;
7729;SDS011;3908;52.310;7.230;2023-02-11T02:53:17;29.93;;;14.70;;
7729;SDS011;3908;52.310;7.230;2023-02-11T02:56:11;34.07;;;15.13;;
7729;SDS011;3908;52.310;7.230;2023-02-11T02:59:09;26.90;;;14.40;;
7729;SDS011;3908;52.310;7.230;2023-02-11T03:02:09;34.87;;;14.57;;
7729;SDS011;3908;52.310;7.230;2023-02-11T03:05:05;28.57;;;14.27;;
7729;SDS011;3908;52.310;7.230;2023-02-11T03:08:01;33.83;;;15.60;;
7729;SDS011;3908;52.310;7.230;2023-02-11T03:10:55;24.97;;;14.90;;
7729;SDS011;3908;52.310;7.230;2023-02-11T03:13:45;28.87;;;14.77;;
7729;SDS011;3908;52.310;7.230;2023-02-11T03:16:34;26.00;;;14.83;;
7729;SDS011;3908;52.310;7.230;2023-02-11T03:19:24;34.27;;;15.23;;
7729;SDS011;3908;52.310;7.230;2023-02-11T03:22:15;33.40;;;14.77;;
7729;SDS011;3908;52.310;7.230;2023-02-11T03:25:07;30.20;;;13.87;;
7729;SDS011;3908;52.310;7.230;2023-02-11T03:27:56;26.07;;;14.07;;
7729;SDS011;3908;52.310;7.230;2023-02-11T03:30:52;31.27;;;13.97;;
7729;SDS011;3908;52.310;7.230;2023-02-11T03:33:51;28.87;;;14.13;;
7729;SDS011;3908;52.310;7.230;2023-02-11T03:36:45;30.57;;;14.63;;
7729;SDS011;3908;52.310;7.230;2023-02-11T03:39:38;26.80;;;13.03;;
7729;SDS011;3908;52.310;7.230;2023-02-11T03:42:32;27.27;;;14.77;;
7729;SDS011;3908;52.310;7.230;2023-02-11T03:45:25;27.17;;;13.73;;
7729;SDS011;3908;52.310;7.230;2023-02-11T03:48:14;24.57;;;13.13;;
7729;SDS011;3908;52.310;7.230;2023-02-11T03:51:06;30.00;;;14.53;;
7729;SDS011;3908;52.310;7.230;2023-02-11T03:54:01;32.70;;;16.07;;
7729;SDS011;3908;52.310;7.230;2023-02-11T03:56:52;29.27;;;14.60;;
7729;SDS011;3908;52.310;7.230;2023-02-11T03:59:53;25.53;;;14.03;;
7729;SDS011;3908;52.310;7.230;2023-02-11T04:02:41;28.23;;;14.27;;
7729;SDS011;3908;52.310;7.230;2023-02-11T04:05:30;34.33;;;14.27;;
7729;SDS011;3908;52.310;7.230;2023-02-11T04:08:18;30.50;;;14.17;;
7729;SDS011;3908;52.310;7.230;2023-02-11T04:11:05;30.80;;;13.40;;
7729;SDS011;3908;52.310;7.230;2023-02-11T04:14:04;22.87;;;12.87;;
7729;SDS011;3908;52.310;7.230;2023-02-11T04:16:53;25.03;;;14.47;;
7729;SDS011;3908;52.310;7.230;2023-02-11T04:19:40;31.90;;;14.40;;
7729;SDS011;3908;52.310;7.230;2023-02-11T04:22:28;27.10;;;14.40;;
7729;SDS011;3908;52.310;7.230;2023-02-11T04:25:16;30.07;;;14.53;;
7729;SDS011;3908;52.310;7.230;2023-02-11T04:28:03;28.37;;;14.23;;
7729;SDS011;3908;52.310;7.230;2023-02-11T04:30:50;32.63;;;15.77;;
7729;SDS011;3908;52.310;7.230;2023-02-11T04:33:41;37.23;;;15.90;;
7729;SDS011;3908;52.310;7.230;2023-02-11T04:36:28;30.50;;;15.23;;
7729;SDS011;3908;52.310;7.230;2023-02-11T04:39:15;31.00;;;16.27;;
7729;SDS011;3908;52.310;7.230;2023-02-11T04:42:02;35.93;;;15.30;;
7729;SDS011;3908;52.310;7.230;2023-02-11T04:44:50;29.03;;;15.00;;
7729;SDS011;3908;52.310;7.230;2023-02-11T04:47:39;29.77;;;14.67;;
7729;SDS011;3908;52.310;7.230;2023-02-11T04:50:30;26.80;;;13.83;;
7729;SDS011;3908;52.310;7.230;2023-02-11T04:53:19;27.47;;;13.50;;
7729;SDS011;3908;52.310;7.230;2023-02-11T04:56:07;29.13;;;13.90;;
7729;SDS011;3908;52.310;7.230;2023-02-11T04:58:54;31.13;;;14.10;;
7729;SDS011;3908;52.310;7.230;2023-02-11T05:01:56;36.37;;;14.53;;
7729;SDS011;3908;52.310;7.230;2023-02-11T05:04:43;26.00;;;12.70;;
7729;SDS011;3908;52.310;7.230;2023-02-11T05:07:32;37.33;;;14.23;;
7729;SDS011;3908;52.310;7.230;2023-02-11T05:10:19;29.00;;;14.53;;
7729;SDS011;3908;52.310;7.230;2023-02-11T05:13:08;32.17;;;14.13;;
7729;SDS011;3908;52.310;7.230;2023-02-11T05:15:55;31.50;;;15.00;;
7729;SDS011;3908;52.310;7.230;2023-02-11T05:18:43;28.57;;;14.20;;
7729;SDS011;3908;52.310;7.230;2023-02-11T05:21:31;27.67;;;14.20;;
7729;SDS011;3908;52.310;7.230;2023-02-11T05:24:19;28.73;;;15.20;;
7729;SDS011;3908;52.310;7.230;2023-02-11T05:27:07;29.20;;;14.90;;
7729;SDS011;3908;52.310;7.230;2023-02-11T05:29:54;39.40;;;15.73;;
7729;SDS011;3908;52.310;7.230;2023-02-11T05:32:41;29.90;;;14.67;;
7729;SDS011;3908;52.310;7.230;2023-02-11T05:35:28;34.30;;;14.97;;
7729;SDS011;3908;52.310;7.230;2023-02-11T05:38:15;26.50;;;13.43;;
7729;SDS011;3908;52.310;7.230;2023-02-11T05:41:05;30.47;;;13.73;;
7729;SDS011;3908;52.310;7.230;2023-02-11T05:43:53;37.90;;;14.37;;
7729;SDS011;3908;52.310;7.230;2023-02-11T05:46:40;32.23;;;15.10;;
7729;SDS011;3908;52.310;7.230;2023-02-11T05:49:29;36.20;;;14.50;;
7729;SDS011;3908;52.310;7.230;2023-02-11T05:52:17;37.97;;;16.70;;
7729;SDS011;3908;52.310;7.230;2023-02-11T05:55:04;37.73;;;15.87;;
7729;SDS011;3908;52.310;7.230;2023-02-11T05:57:53;31.90;;;15.07;;
7729;SDS011;3908;52.310;7.230;2023-02-11T06:00:43;35.53;;;14.93;;
7729;SDS011;3908;52.310;7.230;2023-02-11T06:03:30;43.80;;;16.10;;
7729;SDS011;3908;52.310;7.230;2023-02-11T06:06:17;35.07;;;17.00;;
7729;SDS011;3908;52.310;7.230;2023-02-11T06:09:04;33.57;;;16.43;;
7729;SDS011;3908;52.310;7.230;2023-02-11T06:11:51;30.63;;;14.80;;
7729;SDS011;3908;52.310;7.230;2023-02-11T06:14:40;36.47;;;15.07;;
7729;SDS011;3908;52.310;7.230;2023-02-11T06:17:27;36.50;;;15.00;;
7729;SDS011;3908;52.310;7.230;2023-02-11T06:20:17;34.70;;;15.93;;
7729;SDS011;3908;52.310;7.230;2023-02-11T06:23:05;40.03;;;16.93;;
7729;SDS011;3908;52.310;7.230;2023-02-11T06:25:53;35.93;;;16.27;;
7729;SDS011;3908;52.310;7.230;2023-02-11T06:28:40;35.50;;;16.30;;
7729;SDS011;3908;52.310;7.230;2023-02-11T06:31:31;35.07;;;16.33;;
7729;SDS011;3908;52.310;7.230;2023-02-11T06:34:18;37.67;;;17.93;;
7729;SDS011;3908;52.310;7.230;2023-02-11T06:37:05;35.70;;;16.33;;
7729;SDS011;3908;52.310;7.230;2023-02-11T06:39:52;32.73;;;16.57;;
7729;SDS011;3908;52.310;7.230;2023-02-11T06:42:39;41.10;;;18.70;;
7729;SDS011;3908;52.310;7.230;2023-02-11T06:45:27;44.93;;;19.37;;
7729;SDS011;3908;52.310;7.230;2023-02-11T06:48:20;41.10;;;18.57;;
7729;SDS011;3908;52.310;7.230;2023-02-11T06:51:09;39.37;;;19.77;;
7729;SDS011;3908;52.310;7.230;2023-02-11T06:53:58;40.07;;;19.57;;
7729;SDS011;3908;52.310;7.230;2023-02-11T06:56:45;41.93;;;20.80;;
7729;SDS011;3908;52.310;7.230;2023-02-11T06:59:32;44.27;;;19.00;;
7729;SDS011;3908;52.310;7.230;2023-02-11T07:02:19;39.27;;;20.30;;
7729;SDS011;3908;52.310;7.230;2023-02-11T07:05:08;43.33;;;19.27;;
7729;SDS011;3908;52.310;7.230;2023-02-11T07:08:01;36.67;;;19.37;;
7729;SDS011;3908;52.310;7.230;2023-02-11T07:10:50;47.93;;;19.63;;
7729;SDS011;3908;52.310;7.230;2023-02-11T07:13:50;37.27;;;19.67;;
7729;SDS011;3908;52.310;7.230;2023-02-11T07:16:45;44.20;;;20.70;;
7729;SDS011;3908;52.310;7.230;2023-02-11T07:19:32;41.43;;;19.73;;
7729;SDS011;3908;52.310;7.230;2023-02-11T07:22:21;45.40;;;20.83;;
7729;SDS011;3908;52.310;7.230;2023-02-11T07:25:08;53.10;;;21.30;;
7729;SDS011;3908;52.310;7.230;2023-02-11T07:27:56;44.77;;;20.63;;
7729;SDS011;3908;52.310;7.230;2023-02-11T07:30:43;48.57;;;21.23;;
7729;SDS011;3908;52.310;7.230;2023-02-11T07:33:39;48.77;;;21.10;;
7729;SDS011;3908;52.310;7.230;2023-02-11T07:36:36;50.60;;;21.60;;
7729;SDS011;3908;52.310;7.230;2023-02-11T07:39:31;42.27;;;20.77;;
7729;SDS011;3908;52.310;7.230;2023-02-11T07:42:42;48.83;;;22.83;;
7729;SDS011;3908;52.310;7.230;2023-02-11T07:45:38;51.33;;;21.47;;
7729;SDS011;3908;52.310;7.230;2023-02-11T07:48:26;54.10;;;22.87;;
7729;SDS011;3908;52.310;7.230;2023-02-11T07:51:18;51.73;;;23.30;;
7729;SDS011;3908;52.310;7.230;2023-02-11T07:54:09;56.23;;;24.27;;
7729;SDS011;3908;52.310;7.230;2023-02-11T07:57:00;46.40;;;21.37;;
7729;SDS011;3908;52.310;7.230;2023-02-11T07:59:51;51.10;;;23.30;;
7729;SDS011;3908;52.310;7.230;2023-02-11T08:02:39;49.83;;;23.67;;
7729;SDS011;3908;52.310;7.230;2023-02-11T08:05:26;49.40;;;23.17;;
7729;SDS011;3908;52.310;7.230;2023-02-11T08:08:24;53.03;;;22.63;;
7729;SDS011;3908;52.310;7.230;2023-02-11T08:11:21;56.63;;;23.80;;
7729;SDS011;3908;52.310;7.230;2023-02-11T08:14:14;54.80;;;22.80;;
7729;SDS011;3908;52.310;7.230;2023-02-11T08:36:06;51.83;;;24.37;;
7729;SDS011;3908;52.310;7.230;2023-02-11T08:38:54;51.80;;;22.57;;
7729;SDS011;3908;52.310;7.230;2023-02-11T08:41:41;57.47;;;24.70;;
7729;SDS011;3908;52.310;7.230;2023-02-11T08:48:21;53.40;;;23.97;;
7729;SDS011;3908;52.310;7.230;2023-02-11T08:51:17;56.87;;;24.33;;
7729;SDS011;3908;52.310;7.230;2023-02-11T08:54:05;56.20;;;23.73;;
7729;SDS011;3908;52.310;7.230;2023-02-11T08:56:54;63.77;;;24.73;;
7729;SDS011;3908;52.310;7.230;2023-02-11T08:59:41;47.23;;;24.40;;
7729;SDS011;3908;52.310;7.230;2023-02-11T09:02:28;53.90;;;24.10;;
7729;SDS011;3908;52.310;7.230;2023-02-11T09:05:15;57.77;;;22.97;;
7729;SDS011;3908;52.310;7.230;2023-02-11T09:08:03;51.70;;;24.40;;
7729;SDS011;3908;52.310;7.230;2023-02-11T09:10:51;59.87;;;25.90;;
7729;SDS011;3908;52.310;7.230;2023-02-11T09:13:39;61.03;;;24.03;;
7729;SDS011;3908;52.310;7.230;2023-02-11T09:16:27;54.57;;;24.47;;
7729;SDS011;3908;52.310;7.230;2023-02-11T09:19:18;54.80;;;24.80;;
7729;SDS011;3908;52.310;7.230;2023-02-11T09:22:07;60.90;;;25.87;;
7729;SDS011;3908;52.310;7.230;2023-02-11T09:24:55;59.13;;;25.57;;
7729;SDS011;3908;52.310;7.230;2023-02-11T09:27:42;57.47;;;24.63;;
7729;SDS011;3908;52.310;7.230;2023-02-11T09:30:30;58.03;;;25.70;;
7729;SDS011;3908;52.310;7.230;2023-02-11T09:33:17;52.57;;;25.20;;
7729;SDS011;3908;52.310;7.230;2023-02-11T09:36:04;60.60;;;26.50;;
7729;SDS011;3908;52.310;7.230;2023-02-11T09:38:52;68.70;;;26.13;;
7729;SDS011;3908;52.310;7.230;2023-02-11T09:41:53;56.17;;;26.03;;
7729;SDS011;3908;52.310;7.230;2023-02-11T09:44:56;56.77;;;25.20;;
7729;SDS011;3908;52.310;7.230;2023-02-11T09:47:46;57.67;;;25.10;;
7729;SDS011;3908;52.310;7.230;2023-02-11T09:50:38;59.17;;;24.90;;
7729;SDS011;3908;52.310;7.230;2023-02-11T09:53:28;59.63;;;26.97;;
7729;SDS011;3908;52.310;7.230;2023-02-11T09:56:20;50.57;;;24.03;;
7729;SDS011;3908;52.310;7.230;2023-02-11T09:59:10;61.10;;;24.73;;
7729;SDS011;3908;52.310;7.230;2023-02-11T10:02:01;49.47;;;24.20;;
7729;SDS011;3908;52.310;7.230;2023-02-11T10:05:01;61.00;;;25.67;;
7729;SDS011;3908;52.310;7.230;2023-02-11T10:08:00;56.60;;;26.07;;
7729;SDS011;3908;52.310;7.230;2023-02-11T10:10:57;53.57;;;24.43;;
7729;SDS011;3908;52.310;7.230;2023-02-11T10:13:52;52.67;;;24.27;;
7729;SDS011;3908;52.310;7.230;2023-02-11T10:16:51;55.33;;;23.00;;
7729;SDS011;3908;52.310;7.230;2023-02-11T10:19:52;51.80;;;24.00;;
7729;SDS011;3908;52.310;7.230;2023-02-11T10:22:49;57.10;;;23.53;;
7729;SDS011;3908;52.310;7.230;2023-02-11T10:25:40;51.67;;;23.53;;
7729;SDS011;3908;52.310;7.230;2023-02-11T10:28:31;47.33;;;22.20;;
7729;SDS011;3908;52.310;7.230;2023-02-11T10:31:21;49.10;;;22.93;;
7729;SDS011;3908;52.310;7.230;2023-02-11T10:34:13;47.10;;;24.03;;
7729;SDS011;3908;52.310;7.230;2023-02-11T10:37:00;44.10;;;22.00;;
7729;SDS011;3908;52.310;7.230;2023-02-11T10:39:47;47.87;;;22.13;;
7729;SDS011;3908;52.310;7.230;2023-02-11T10:42:34;53.17;;;23.30;;
7729;SDS011;3908;52.310;7.230;2023-02-11T10:45:24;45.10;;;21.50;;
7729;SDS011;3908;52.310;7.230;2023-02-11T10:51:30;45.07;;;20.40;;
7729;SDS011;3908;52.310;7.230;2023-02-11T10:54:19;39.37;;;19.60;;
7729;SDS011;3908;52.310;7.230;2023-02-11T10:57:12;44.93;;;20.50;;
7729;SDS011;3908;52.310;7.230;2023-02-11T11:00:14;42.50;;;19.97;;
7729;SDS011;3908;52.310;7.230;2023-02-11T11:03:14;40.63;;;20.80;;
7729;SDS011;3908;52.310;7.230;2023-02-11T11:06:04;36.57;;;19.73;;
7729;SDS011;3908;52.310;7.230;2023-02-11T11:08:54;43.50;;;20.80;;
7729;SDS011;3908;52.310;7.230;2023-02-11T11:11:49;43.70;;;22.00;;
7729;SDS011;3908;52.310;7.230;2023-02-11T11:14:38;41.30;;;20.13;;
7729;SDS011;3908;52.310;7.230;2023-02-11T11:17:25;41.10;;;21.17;;
7729;SDS011;3908;52.310;7.230;2023-02-11T11:20:23;37.80;;;19.27;;
7729;SDS011;3908;52.310;7.230;2023-02-11T11:23:15;40.50;;;18.43;;
7729;SDS011;3908;52.310;7.230;2023-02-11T11:26:06;37.00;;;18.90;;
7729;SDS011;3908;52.310;7.230;2023-02-11T11:28:58;38.50;;;19.03;;
7729;SDS011;3908;52.310;7.230;2023-02-11T11:31:48;41.33;;;19.40;;
7729;SDS011;3908;52.310;7.230;2023-02-11T11:34:37;34.07;;;18.27;;
7729;SDS011;3908;52.310;7.230;2023-02-11T11:37:28;36.83;;;18.47;;
7729;SDS011;3908;52.310;7.230;2023-02-11T11:40:20;35.23;;;19.53;;
7729;SDS011;3908;52.310;7.230;2023-02-11T11:43:17;38.23;;;20.13;;
7729;SDS011;3908;52.310;7.230;2023-02-11T11:46:06;45.20;;;23.83;;
7729;SDS011;3908;52.310;7.230;2023-02-11T11:49:13;38.60;;;19.13;;
7729;SDS011;3908;52.310;7.230;2023-02-11T11:52:14;37.43;;;20.20;;
7729;SDS011;3908;52.310;7.230;2023-02-11T11:55:13;40.77;;;19.20;;
7729;SDS011;3908;52.310;7.230;2023-02-11T11:58:05;41.90;;;22.60;;
7729;SDS011;3908;52.310;7.230;2023-02-11T12:01:04;41.83;;;20.93;;
7729;SDS011;3908;52.310;7.230;2023-02-11T12:07:23;43.13;;;19.77;;
7729;SDS011;3908;52.310;7.230;2023-02-11T12:13:39;37.03;;;18.33;;
7729;SDS011;3908;52.310;7.230;2023-02-11T12:16:38;39.23;;;19.93;;
7729;SDS011;3908;52.310;7.230;2023-02-11T12:23:04;45.20;;;20.67;;
7729;SDS011;3908;52.310;7.230;2023-02-11T12:26:06;36.50;;;19.70;;
7729;SDS011;3908;52.310;7.230;2023-02-11T12:29:03;43.17;;;19.47;;
7729;SDS011;3908;52.310;7.230;2023-02-11T12:32:09;34.00;;;18.60;;
7729;SDS011;3908;52.310;7.230;2023-02-11T12:35:06;34.00;;;18.40;;
7729;SDS011;3908;52.310;7.230;2023-02-11T12:38:10;37.13;;;19.00;;
7729;SDS011;3908;52.310;7.230;2023-02-11T12:41:11;30.50;;;16.63;;
7729;SDS011;3908;52.310;7.230;2023-02-11T12:44:30;48.90;;;21.90;;
7729;SDS011;3908;52.310;7.230;2023-02-11T12:47:27;35.00;;;16.97;;
7729;SDS011;3908;52.310;7.230;2023-02-11T12:50:24;30.23;;;16.57;;
7729;SDS011;3908;52.310;7.230;2023-02-11T12:53:40;36.80;;;20.33;;
7729;SDS011;3908;52.310;7.230;2023-02-11T12:56:42;29.87;;;15.67;;
7729;SDS011;3908;52.310;7.230;2023-02-11T12:59:40;26.37;;;15.57;;
7729;SDS011;3908;52.310;7.230;2023-02-11T13:02:35;42.47;;;23.23;;
7729;SDS011;3908;52.310;7.230;2023-02-11T13:05:28;46.70;;;22.17;;
7729;SDS011;3908;52.310;7.230;2023-02-11T13:08:23;33.70;;;17.63;;
7729;SDS011;3908;52.310;7.230;2023-02-11T13:11:16;33.03;;;18.23;;
7729;SDS011;3908;52.310;7.230;2023-02-11T13:14:06;33.17;;;18.93;;
7729;SDS011;3908;52.310;7.230;2023-02-11T13:17:00;45.93;;;22.17;;
7729;SDS011;3908;52.310;7.230;2023-02-11T13:20:12;53.77;;;24.27;;
7729;SDS011;3908;52.310;7.230;2023-02-11T13:23:10;50.87;;;23.73;;
7729;SDS011;3908;52.310;7.230;2023-02-11T13:26:04;28.93;;;16.63;;
7729;SDS011;3908;52.310;7.230;2023-02-11T13:29:00;36.77;;;18.53;;
7729;SDS011;3908;52.310;7.230;2023-02-11T13:32:04;29.70;;;17.37;;
7729;SDS011;3908;52.310;7.230;2023-02-11T13:34:54;31.30;;;15.97;;
7729;SDS011;3908;52.310;7.230;2023-02-11T13:37:46;35.73;;;18.83;;
7729;SDS011;3908;52.310;7.230;2023-02-11T13:40:34;24.37;;;14.63;;
7729;SDS011;3908;52.310;7.230;2023-02-11T13:43:24;31.73;;;15.87;;
7729;SDS011;3908;52.310;7.230;2023-02-11T13:46:13;44.90;;;19.47;;
7729;SDS011;3908;52.310;7.230;2023-02-11T13:49:01;30.20;;;14.40;;
7729;SDS011;3908;52.310;7.230;2023-02-11T13:51:48;35.63;;;17.40;;
7729;SDS011;3908;52.310;7.230;2023-02-11T13:54:38;25.33;;;12.00;;
7729;SDS011;3908;52.310;7.230;2023-02-11T13:57:29;17.07;;;9.33;;
7729;SDS011;3908;52.310;7.230;2023-02-11T14:03:35;15.20;;;8.57;;
7729;SDS011;3908;52.310;7.230;2023-02-11T14:20:02;15.10;;;6.77;;
7729;SDS011;3908;52.310;7.230;2023-02-11T14:23:20;12.30;;;6.43;;
7729;SDS011;3908;52.310;7.230;2023-02-11T14:26:20;10.47;;;6.10;;
7729;SDS011;3908;52.310;7.230;2023-02-11T14:29:18;10.23;;;5.90;;
7729;SDS011;3908;52.310;7.230;2023-02-11T14:32:16;9.90;;;6.33;;
7729;SDS011;3908;52.310;7.230;2023-02-11T14:35:21;9.17;;;5.80;;
7729;SDS011;3908;52.310;7.230;2023-02-11T14:38:16;15.10;;;6.83;;
7729;SDS011;3908;52.310;7.230;2023-02-11T14:41:15;10.63;;;5.77;;
7729;SDS011;3908;52.310;7.230;2023-02-11T14:44:10;9.10;;;5.97;;
7729;SDS011;3908;52.310;7.230;2023-02-11T14:47:01;10.60;;;5.87;;
7729;SDS011;3908;52.310;7.230;2023-02-11T14:49:49;14.17;;;5.50;;
7729;SDS011;3908;52.310;7.230;2023-02-11T14:52:36;11.70;;;6.13;;
7729;SDS011;3908;52.310;7.230;2023-02-11T14:55:28;19.07;;;7.07;;
7729;SDS011;3908;52.310;7.230;2023-02-11T14:58:19;15.20;;;6.63;;
7729;SDS011;3908;52.310;7.230;2023-02-11T15:01:23;10.43;;;5.13;;
7729;SDS011;3908;52.310;7.230;2023-02-11T15:04:22;8.20;;;5.13;;
7729;SDS011;3908;52.310;7.230;2023-02-11T15:07:12;9.93;;;5.30;;
7729;SDS011;3908;52.310;7.230;2023-02-11T15:10:02;9.80;;;4.83;;
7729;SDS011;3908;52.310;7.230;2023-02-11T15:12:50;11.03;;;5.10;;
7729;SDS011;3908;52.310;7.230;2023-02-11T15:15:39;11.83;;;5.37;;
7729;SDS011;3908;52.310;7.230;2023-02-11T15:18:28;7.70;;;5.07;;
7729;SDS011;3908;52.310;7.230;2023-02-11T15:21:20;12.23;;;4.83;;
7729;SDS011;3908;52.310;7.230;2023-02-11T15:24:19;8.83;;;5.00;;
7729;SDS011;3908;52.310;7.230;2023-02-11T15:27:09;11.77;;;6.40;;
7729;SDS011;3908;52.310;7.230;2023-02-11T15:29:59;11.57;;;5.13;;
7729;SDS011;3908;52.310;7.230;2023-02-11T15:33:04;9.87;;;5.40;;
7729;SDS011;3908;52.310;7.230;2023-02-11T15:35:52;8.30;;;5.00;;
7729;SDS011;3908;52.310;7.230;2023-02-11T15:38:41;15.00;;;5.80;;
7729;SDS011;3908;52.310;7.230;2023-02-11T15:41:33;8.47;;;4.40;;
7729;SDS011;3908;52.310;7.230;2023-02-11T15:44:28;8.70;;;4.90;;
7729;SDS011;3908;52.310;7.230;2023-02-11T15:47:18;10.37;;;5.50;;
7729;SDS011;3908;52.310;7.230;2023-02-11T15:50:19;8.27;;;4.50;;
7729;SDS011;3908;52.310;7.230;2023-02-11T15:53:18;7.33;;;4.70;;
7729;SDS011;3908;52.310;7.230;2023-02-11T15:56:10;11.50;;;5.73;;
7729;SDS011;3908;52.310;7.230;2023-02-11T15:59:07;12.17;;;5.20;;
7729;SDS011;3908;52.310;7.230;2023-02-11T16:02:03;7.90;;;4.87;;
7729;SDS011;3908;52.310;7.230;2023-02-11T16:04:53;9.03;;;4.97;;
7729;SDS011;3908;52.310;7.230;2023-02-11T16:07:45;11.20;;;4.67;;
7729;SDS011;3908;52.310;7.230;2023-02-11T16:10:34;7.77;;;4.57;;
7729;SDS011;3908;52.310;7.230;2023-02-11T16:13:21;14.37;;;4.73;;
7729;SDS011;3908;52.310;7.230;2023-02-11T16:16:15;7.83;;;4.33;;
7729;SDS011;3908;52.310;7.230;2023-02-11T16:19:04;9.03;;;4.93;;
7729;SDS011;3908;52.310;7.230;2023-02-11T16:21:51;8.57;;;5.17;;
7729;SDS011;3908;52.310;7.230;2023-02-11T16:24:41;9.87;;;4.87;;
7729;SDS011;3908;52.310;7.230;2023-02-11T16:27:28;8.93;;;4.67;;
7729;SDS011;3908;52.310;7.230;2023-02-11T16:30:23;13.57;;;4.83;;
7729;SDS011;3908;52.310;7.230;2023-02-11T16:33:14;9.17;;;5.30;;
7729;SDS011;3908;52.310;7.230;2023-02-11T16:36:05;12.97;;;6.40;;
7729;SDS011;3908;52.310;7.230;2023-02-11T16:38:57;14.57;;;6.80;;
7729;SDS011;3908;52.310;7.230;2023-02-11T16:41:53;12.50;;;5.57;;
7729;SDS011;3908;52.310;7.230;2023-02-11T16:44:40;11.70;;;5.57;;
7729;SDS011;3908;52.310;7.230;2023-02-11T16:54:41;9.93;;;5.33;;
7729;SDS011;3908;52.310;7.230;2023-02-11T16:57:39;12.33;;;4.43;;
7729;SDS011;3908;52.310;7.230;2023-02-11T17:00:26;7.03;;;4.50;;
7729;SDS011;3908;52.310;7.230;2023-02-11T17:03:15;8.73;;;4.93;;
7729;SDS011;3908;52.310;7.230;2023-02-11T17:06:09;11.73;;;4.93;;
7729;SDS011;3908;52.310;7.230;2023-02-11T17:08:58;6.97;;;4.37;;
7729;SDS011;3908;52.310;7.230;2023-02-11T17:11:45;12.27;;;4.43;;
7729;SDS011;3908;52.310;7.230;2023-02-11T17:14:34;7.20;;;4.53;;
7729;SDS011;3908;52.310;7.230;2023-02-11T17:17:21;12.23;;;4.70;;
7729;SDS011;3908;52.310;7.230;2023-02-11T17:20:10;11.67;;;4.90;;
7729;SDS011;3908;52.310;7.230;2023-02-11T17:30:26;10.53;;;5.17;;
7729;SDS011;3908;52.310;7.230;2023-02-11T17:33:16;10.60;;;4.97;;
7729;SDS011;3908;52.310;7.230;2023-02-11T17:36:07;12.97;;;5.27;;
7729;SDS011;3908;52.310;7.230;2023-02-11T17:39:00;13.53;;;4.97;;
7729;SDS011;3908;52.310;7.230;2023-02-11T17:42:05;8.60;;;4.93;;
7729;SDS011;3908;52.310;7.230;2023-02-11T17:44:56;11.07;;;5.47;;
7729;SDS011;3908;52.310;7.230;2023-02-11T17:47:46;9.80;;;4.70;;
7729;SDS011;3908;52.310;7.230;2023-02-11T17:50:34;8.13;;;4.80;;
7729;SDS011;3908;52.310;7.230;2023-02-11T17:53:21;9.20;;;5.13;;
7729;SDS011;3908;52.310;7.230;2023-02-11T17:56:10;10.67;;;5.43;;
7729;SDS011;3908;52.310;7.230;2023-02-11T17:58:57;12.53;;;5.70;;
7729;SDS011;3908;52.310;7.230;2023-02-11T18:01:47;14.47;;;6.20;;
7729;SDS011;3908;52.310;7.230;2023-02-11T18:04:36;10.03;;;6.00;;
7729;SDS011;3908;52.310;7.230;2023-02-11T18:07:23;13.03;;;5.40;;
7729;SDS011;3908;52.310;7.230;2023-02-11T18:10:13;11.57;;;5.50;;
7729;SDS011;3908;52.310;7.230;2023-02-11T18:13:02;14.77;;;5.90;;
7729;SDS011;3908;52.310;7.230;2023-02-11T18:15:49;9.67;;;5.13;;
7729;SDS011;3908;52.310;7.230;2023-02-11T18:18:36;9.63;;;5.33;;
7729;SDS011;3908;52.310;7.230;2023-02-11T18:21:24;10.30;;;5.50;;
7729;SDS011;3908;52.310;7.230;2023-02-11T18:24:12;8.43;;;4.57;;
7729;SDS011;3908;52.310;7.230;2023-02-11T18:26:59;8.43;;;5.17;;
7729;SDS011;3908;52.310;7.230;2023-02-11T18:29:47;18.20;;;5.87;;
7729;SDS011;3908;52.310;7.230;2023-02-11T18:32:35;12.27;;;5.70;;